createdAt,value
2017-08-01T00:00:52.970Z,79.37
2017-08-01T00:01:54.785Z,78.99
2017-08-01T00:02:56.619Z,79.27
2017-08-01T00:03:58.486Z,79.17
2017-08-01T00:05:00.362Z,79.12
2017-08-01T00:06:02.257Z,78.92
2017-08-01T00:07:16.425Z,78.73
2017-08-01T00:08:18.297Z,78.59
2017-08-01T00:09:20.194Z,78.41
2017-08-01T00:10:22.070Z,78.79
2017-08-01T00:11:23.901Z,78.69
2017-08-01T00:12:25.714Z,78.89
2017-08-01T00:13:27.606Z,79.27
2017-08-01T00:14:29.483Z,79.17
2017-08-01T00:15:31.346Z,79.17
2017-08-01T00:16:45.492Z,78.99
2017-08-01T00:17:47.359Z,78.94
2017-08-01T00:18:49.238Z,79.24
2017-08-01T00:19:51.135Z,79.43
2017-08-01T00:20:52.971Z,79.72
2017-08-01T00:21:54.808Z,80.68
2017-08-01T00:22:56.717Z,80.93
2017-08-01T00:23:58.600Z,81.70
2017-08-01T00:25:00.470Z,82.09
2017-08-01T00:26:14.614Z,83.15
2017-08-01T00:27:16.491Z,83.63
2017-08-01T00:28:18.379Z,83.73
2017-08-01T00:29:20.257Z,83.73
2017-08-01T00:30:22.069Z,84.36
2017-08-01T00:31:23.875Z,84.50
2017-08-01T00:32:25.746Z,84.21
2017-08-01T00:33:27.620Z,83.73
2017-08-01T00:34:29.478Z,83.34
2017-08-01T00:35:43.622Z,82.71
2017-08-01T00:36:45.492Z,82.51
2017-08-01T00:37:47.368Z,82.48
2017-08-01T00:38:49.266Z,81.90
2017-08-01T00:39:51.097Z,81.80
2017-08-01T00:40:52.907Z,82.09
2017-08-01T00:41:54.781Z,82.38
2017-08-01T00:42:56.650Z,82.32
2017-08-01T00:43:58.518Z,81.74
2017-08-01T00:45:12.665Z,81.65
2017-08-01T00:46:14.534Z,81.07
2017-08-01T00:47:16.405Z,80.87
2017-08-01T00:48:18.278Z,81.16
2017-08-01T00:49:20.108Z,81.35
2017-08-01T00:50:21.920Z,80.30
2017-08-01T00:51:23.789Z,80.39
2017-08-01T00:52:25.661Z,80.39
2017-08-01T00:53:27.559Z,80.58
2017-08-01T00:54:41.727Z,80.87
2017-08-01T00:55:43.620Z,80.39
2017-08-01T00:56:45.494Z,80.20
2017-08-01T00:57:47.388Z,80.49
2017-08-01T00:58:49.204Z,80.58
2017-08-01T00:59:51.042Z,80.20
2017-08-01T01:00:52.937Z,80.00
2017-08-01T01:01:54.830Z,80.58
2017-08-01T01:02:56.701Z,80.58
2017-08-01T01:04:10.898Z,80.68
2017-08-01T01:05:12.841Z,80.00
2017-08-01T01:06:14.746Z,79.91
2017-08-01T01:07:16.840Z,80.58
2017-08-01T01:08:18.676Z,80.78
2017-08-01T01:09:20.511Z,80.20
2017-08-01T01:10:22.401Z,80.30
2017-08-01T01:11:24.274Z,80.39
2017-08-01T01:12:26.161Z,80.58
2017-08-01T01:13:40.311Z,80.39
2017-08-01T01:14:42.208Z,80.58
2017-08-01T01:15:44.083Z,80.16
2017-08-01T01:16:45.979Z,80.74
2017-08-01T01:17:47.816Z,80.30
2017-08-01T01:18:49.652Z,80.35
2017-08-01T01:19:51.545Z,80.68
2017-08-01T01:20:53.441Z,80.87
2017-08-01T01:21:55.309Z,80.64
2017-08-01T01:23:09.455Z,80.83
2017-08-01T01:24:11.347Z,80.45
2017-08-01T01:25:13.222Z,80.26
2017-08-01T01:26:15.098Z,80.74
2017-08-01T01:27:16.932Z,80.64
2017-08-01T01:28:18.764Z,80.64
2017-08-01T01:29:20.635Z,80.54
2017-08-01T01:30:22.514Z,80.54
2017-08-01T01:31:24.404Z,81.02
2017-08-01T01:32:38.544Z,80.64
2017-08-01T01:33:40.417Z,80.54
2017-08-01T01:34:42.316Z,80.45
2017-08-01T01:35:44.210Z,80.93
2017-08-01T01:36:46.020Z,80.54
2017-08-01T01:37:47.826Z,80.74
2017-08-01T01:38:49.722Z,81.12
2017-08-01T01:39:51.627Z,80.93
2017-08-01T01:40:53.523Z,80.35
2017-08-01T01:42:07.667Z,80.54
2017-08-01T01:43:09.563Z,80.54
2017-08-01T01:44:11.459Z,80.74
2017-08-01T01:45:13.358Z,80.45
2017-08-01T01:46:15.191Z,80.54
2017-08-01T01:47:17.003Z,80.35
2017-08-01T01:48:18.896Z,80.35
2017-08-01T01:49:20.771Z,80.83
2017-08-01T01:50:22.659Z,80.54
2017-08-01T01:51:36.802Z,80.45
2017-08-01T01:52:38.691Z,80.45
2017-08-01T01:53:40.586Z,80.54
2017-08-01T01:54:42.479Z,80.16
2017-08-01T01:55:44.313Z,79.58
2017-08-01T01:56:46.136Z,79.68
2017-08-01T01:57:48.011Z,80.26
2017-08-01T01:58:49.901Z,79.87
2017-08-01T01:59:51.777Z,80.06
2017-08-01T02:01:05.989Z,80.45
2017-08-01T02:02:07.857Z,80.74
2017-08-01T02:03:09.745Z,80.06
2017-08-01T02:04:11.620Z,79.77
2017-08-01T02:05:13.448Z,79.29
2017-08-01T02:06:15.254Z,78.91
2017-08-01T02:07:17.142Z,78.52
2017-08-01T02:08:19.016Z,78.52
2017-08-01T02:09:20.912Z,78.42
2017-08-01T02:10:35.075Z,78.42
2017-08-01T02:11:36.944Z,77.07
2017-08-01T02:12:38.820Z,77.17
2017-08-01T02:13:40.682Z,77.40
2017-08-01T02:14:42.511Z,77.46
2017-08-01T02:15:44.319Z,78.03
2017-08-01T02:16:46.207Z,77.55
2017-08-01T02:17:48.082Z,76.20
2017-08-01T02:18:49.977Z,76.78
2017-08-01T02:20:04.134Z,77.07
2017-08-01T02:21:06.008Z,77.07
2017-08-01T02:22:07.878Z,77.07
2017-08-01T02:23:09.768Z,77.40
2017-08-01T02:24:11.576Z,76.15
2017-08-01T02:25:13.392Z,76.53
2017-08-01T02:26:15.285Z,76.15
2017-08-01T02:27:17.176Z,75.47
2017-08-01T02:28:19.047Z,75.67
2017-08-01T02:29:33.189Z,75.02
2017-08-01T02:30:35.071Z,74.64
2017-08-01T02:31:36.943Z,74.44
2017-08-01T02:32:38.814Z,74.35
2017-08-01T02:33:40.645Z,74.54
2017-08-01T02:34:42.473Z,74.25
2017-08-01T02:35:44.344Z,74.06
2017-08-01T02:36:46.221Z,73.48
2017-08-01T02:37:48.118Z,73.52
2017-08-01T02:39:02.282Z,73.42
2017-08-01T02:40:04.173Z,73.71
2017-08-01T02:41:06.069Z,73.61
2017-08-01T02:42:07.962Z,73.52
2017-08-01T02:43:09.771Z,73.32
2017-08-01T02:44:11.576Z,73.52
2017-08-01T02:45:13.445Z,73.52
2017-08-01T02:46:15.313Z,73.42
2017-08-01T02:47:17.180Z,73.61
2017-08-01T02:48:31.369Z,74.06
2017-08-01T02:49:33.235Z,74.16
2017-08-01T02:50:35.107Z,74.35
2017-08-01T02:51:36.999Z,74.44
2017-08-01T02:52:38.807Z,75.41
2017-08-01T02:53:40.612Z,75.41
2017-08-01T02:54:42.491Z,74.93
2017-08-01T02:55:44.358Z,74.54
2017-08-01T02:56:46.229Z,74.73
2017-08-01T02:58:00.398Z,74.35
2017-08-01T02:59:02.283Z,74.54
2017-08-01T03:00:04.152Z,74.44
2017-08-01T03:01:06.029Z,74.06
2017-08-01T03:02:07.865Z,74.25
2017-08-01T03:03:09.695Z,73.90
2017-08-01T03:04:11.567Z,73.32
2017-08-01T03:05:13.459Z,73.22
2017-08-01T03:06:15.335Z,73.71
2017-08-01T03:07:29.496Z,73.32
2017-08-01T03:08:31.370Z,72.64
2017-08-01T03:09:33.260Z,72.84
2017-08-01T03:10:35.135Z,72.55
2017-08-01T03:11:36.968Z,72.55
2017-08-01T03:12:38.777Z,72.74
2017-08-01T03:13:40.667Z,72.55
2017-08-01T03:14:42.534Z,72.45
2017-08-01T03:15:44.406Z,72.55
2017-08-01T03:16:58.545Z,72.49
2017-08-01T03:18:00.420Z,72.74
2017-08-01T03:19:02.315Z,72.74
2017-08-01T03:20:04.190Z,73.03
2017-08-01T03:21:06.025Z,73.42
2017-08-01T03:22:07.854Z,73.42
2017-08-01T03:23:09.724Z,73.80
2017-08-01T03:24:11.636Z,73.61
2017-08-01T03:25:13.505Z,73.52
2017-08-01T03:26:27.664Z,73.42
2017-08-01T03:27:29.549Z,72.94
2017-08-01T03:28:31.428Z,72.84
2017-08-01T03:29:33.321Z,73.32
2017-08-01T03:30:35.157Z,73.03
2017-08-01T03:31:36.967Z,72.88
2017-08-01T03:32:38.838Z,72.84
2017-08-01T03:33:40.735Z,73.22
2017-08-01T03:34:42.607Z,73.52
2017-08-01T03:35:56.745Z,73.32
2017-08-01T03:36:58.622Z,73.90
2017-08-01T03:38:00.520Z,74.00
2017-08-01T03:39:02.417Z,73.90
2017-08-01T03:40:04.249Z,73.61
2017-08-01T03:41:06.057Z,73.42
2017-08-01T03:42:07.934Z,73.42
2017-08-01T03:43:09.834Z,73.16
2017-08-01T03:44:11.730Z,72.97
2017-08-01T03:45:25.875Z,73.07
2017-08-01T03:46:27.771Z,72.68
2017-08-01T03:47:29.687Z,72.24
2017-08-01T03:48:31.583Z,71.94
2017-08-01T03:49:33.425Z,71.66
2017-08-01T03:50:35.258Z,71.08
2017-08-01T03:51:37.155Z,70.62
2017-08-01T03:52:39.030Z,70.24
2017-08-01T03:53:40.908Z,70.08
2017-08-01T03:54:55.051Z,69.31
2017-08-01T03:55:56.922Z,69.11
2017-08-01T03:56:58.797Z,68.85
2017-08-01T03:58:00.721Z,68.56
2017-08-01T03:59:02.524Z,67.60
2017-08-01T04:00:04.332Z,66.85
2017-08-01T04:01:06.216Z,66.17
2017-08-01T04:02:08.108Z,65.69
2017-08-01T04:03:10.006Z,65.14
2017-08-01T04:04:24.150Z,64.65
2017-08-01T04:05:26.017Z,64.69
2017-08-01T04:06:27.891Z,63.43
2017-08-01T04:07:29.790Z,63.17
2017-08-01T04:08:31.627Z,62.68
2017-08-01T04:09:33.435Z,62.29
2017-08-01T04:10:35.315Z,62.04
2017-08-01T04:11:37.191Z,61.55
2017-08-01T04:12:39.083Z,61.07
2017-08-01T04:13:53.239Z,60.61
2017-08-01T04:14:55.134Z,60.80
2017-08-01T04:15:57.032Z,60.31
2017-08-01T04:16:58.902Z,59.76
2017-08-01T04:18:00.724Z,59.67
2017-08-01T04:19:02.538Z,59.47
2017-08-01T04:20:04.437Z,58.69
2017-08-01T04:21:06.338Z,58.21
2017-08-01T04:22:08.235Z,58.31
2017-08-01T04:23:22.398Z,58.11
2017-08-01T04:24:24.276Z,57.92
2017-08-01T04:25:26.153Z,58.11
2017-08-01T04:26:28.053Z,57.72
2017-08-01T04:27:29.892Z,57.46
2017-08-01T04:28:31.710Z,56.77
2017-08-01T04:29:33.583Z,56.32
2017-08-01T04:30:35.490Z,55.74
2017-08-01T04:31:37.393Z,55.27
2017-08-01T04:32:51.541Z,55.08
2017-08-01T04:33:53.410Z,55.50
2017-08-01T04:34:55.286Z,54.82
2017-08-01T04:35:57.187Z,54.62
2017-08-01T04:36:59.030Z,54.36
2017-08-01T04:38:00.845Z,54.06
2017-08-01T04:39:02.721Z,53.77
2017-08-01T04:40:04.623Z,53.38
2017-08-01T04:41:06.522Z,53.28
2017-08-01T04:42:20.671Z,52.83
2017-08-01T04:43:22.550Z,51.95
2017-08-01T04:44:24.452Z,52.07
2017-08-01T04:45:26.352Z,52.07
2017-08-01T04:46:28.194Z,52.26
2017-08-01T04:47:30.032Z,51.21
2017-08-01T04:48:31.935Z,51.12
2017-08-01T04:49:33.840Z,50.63
2017-08-01T04:50:35.712Z,50.63
2017-08-01T04:51:49.865Z,50.43
2017-08-01T04:52:51.741Z,50.46
2017-08-01T04:53:53.618Z,50.07
2017-08-01T04:54:55.522Z,49.68
2017-08-01T04:55:57.361Z,49.49
2017-08-01T04:56:59.176Z,49.22
2017-08-01T04:58:01.056Z,49.12
2017-08-01T04:59:02.957Z,48.16
2017-08-01T05:00:04.827Z,48.26
2017-08-01T05:01:18.985Z,48.26
2017-08-01T05:02:20.883Z,47.87
2017-08-01T05:03:22.759Z,47.67
2017-08-01T05:04:24.635Z,47.97
2017-08-01T05:05:26.453Z,48.07
2017-08-01T05:06:28.275Z,48.55
2017-08-01T05:07:30.176Z,47.87
2017-08-01T05:08:32.050Z,47.87
2017-08-01T05:09:33.934Z,47.97
2017-08-01T05:10:48.084Z,47.95
2017-08-01T05:11:49.990Z,48.24
2017-08-01T05:12:51.889Z,48.32
2017-08-01T05:13:53.785Z,49.19
2017-08-01T05:14:55.630Z,48.97
2017-08-01T05:15:57.470Z,49.10
2017-08-01T05:16:59.353Z,48.63
2017-08-01T05:18:01.259Z,48.63
2017-08-01T05:19:03.161Z,47.97
2017-08-01T05:20:17.312Z,48.36
2017-08-01T05:21:19.196Z,48.36
2017-08-01T05:22:21.057Z,48.07
2017-08-01T05:23:22.957Z,48.12
2017-08-01T05:24:24.802Z,49.17
2017-08-01T05:25:26.642Z,50.60
2017-08-01T05:26:28.538Z,51.09
2017-08-01T05:27:30.417Z,51.26
2017-08-01T05:28:32.299Z,51.26
2017-08-01T05:29:46.472Z,51.97
2017-08-01T05:30:48.344Z,51.58
2017-08-01T05:31:50.220Z,51.58
2017-08-01T05:32:52.119Z,51.39
2017-08-01T05:33:53.940Z,51.19
2017-08-01T05:34:55.778Z,51.58
2017-08-01T05:35:57.660Z,51.19
2017-08-01T05:36:59.563Z,50.99
2017-08-01T05:38:01.440Z,50.99
2017-08-01T05:39:15.592Z,51.48
2017-08-01T05:40:17.491Z,51.75
2017-08-01T05:41:19.370Z,52.14
2017-08-01T05:42:21.250Z,52.14
2017-08-01T05:43:23.091Z,51.92
2017-08-01T05:44:24.905Z,52.40
2017-08-01T05:45:26.806Z,52.80
2017-08-01T05:46:28.703Z,52.50
2017-08-01T05:47:30.586Z,52.99
2017-08-01T05:48:44.763Z,53.28
2017-08-01T05:49:46.657Z,53.09
2017-08-01T05:50:48.538Z,53.28
2017-08-01T05:51:50.439Z,52.89
2017-08-01T05:52:52.280Z,53.28
2017-08-01T05:53:54.098Z,53.28
2017-08-01T05:54:55.974Z,53.38
2017-08-01T05:55:57.851Z,53.58
2017-08-01T05:56:59.750Z,53.65
2017-08-01T05:58:13.900Z,54.62
2017-08-01T05:59:15.773Z,54.82
2017-08-01T06:00:17.655Z,55.64
2017-08-01T06:01:19.550Z,57.43
2017-08-01T06:02:21.366Z,59.92
2017-08-01T06:03:23.178Z,61.35
2017-08-01T06:04:25.058Z,61.91
2017-08-01T06:05:26.955Z,62.85
2017-08-01T06:06:28.829Z,63.33
2017-08-01T06:07:42.980Z,63.69
2017-08-01T06:08:44.855Z,63.40
2017-08-01T06:09:46.751Z,63.13
2017-08-01T06:10:48.625Z,62.88
2017-08-01T06:11:50.439Z,62.01
2017-08-01T06:12:52.258Z,60.74
2017-08-01T06:13:54.160Z,60.48
2017-08-01T06:14:56.057Z,60.68
2017-08-01T06:15:57.953Z,61.71
2017-08-01T06:17:12.107Z,62.75
2017-08-01T06:18:13.981Z,63.53
2017-08-01T06:19:15.885Z,63.88
2017-08-01T06:20:17.759Z,64.17
2017-08-01T06:21:19.572Z,64.37
2017-08-01T06:22:21.388Z,64.17
2017-08-01T06:23:23.286Z,64.47
2017-08-01T06:24:25.164Z,64.47
2017-08-01T06:25:27.044Z,64.85
2017-08-01T06:26:41.197Z,65.43
2017-08-01T06:27:43.065Z,65.24
2017-08-01T06:28:44.944Z,65.79
2017-08-01T06:29:46.845Z,66.17
2017-08-01T06:30:48.660Z,66.08
2017-08-01T06:31:50.470Z,66.37
2017-08-01T06:32:52.341Z,66.56
2017-08-01T06:33:54.221Z,66.56
2017-08-01T06:34:56.107Z,66.08
2017-08-01T06:36:10.261Z,66.37
2017-08-01T06:37:12.137Z,66.50
2017-08-01T06:38:14.038Z,66.40
2017-08-01T06:39:15.948Z,66.11
2017-08-01T06:40:17.778Z,66.20
2017-08-01T06:41:19.610Z,65.72
2017-08-01T06:42:21.489Z,65.37
2017-08-01T06:43:23.391Z,64.20
2017-08-01T06:44:25.264Z,64.30
2017-08-01T06:45:39.414Z,64.01
2017-08-01T06:46:41.308Z,63.56
2017-08-01T06:47:43.187Z,63.46
2017-08-01T06:48:45.089Z,62.71
2017-08-01T06:49:46.928Z,62.81
2017-08-01T06:50:48.739Z,63.01
2017-08-01T06:51:50.621Z,62.91
2017-08-01T06:52:52.496Z,62.81
2017-08-01T06:53:54.376Z,63.10
2017-08-01T06:55:08.520Z,62.62
2017-08-01T06:56:10.396Z,63.20
2017-08-01T06:57:12.270Z,63.20
2017-08-01T06:58:14.173Z,63.10
2017-08-01T06:59:16.012Z,63.29
2017-08-01T07:00:17.828Z,63.29
2017-08-01T07:01:19.710Z,62.42
2017-08-01T07:02:21.578Z,62.35
2017-08-01T07:03:23.474Z,61.77
2017-08-01T07:04:37.605Z,62.00
2017-08-01T07:05:39.441Z,60.74
2017-08-01T07:06:41.323Z,60.64
2017-08-01T07:07:43.223Z,60.64
2017-08-01T07:08:45.103Z,60.93
2017-08-01T07:09:46.935Z,60.83
2017-08-01T07:10:48.752Z,60.83
2017-08-01T07:11:50.631Z,61.02
2017-08-01T07:12:52.512Z,60.47
2017-08-01T07:14:06.718Z,60.38
2017-08-01T07:15:08.596Z,60.35
2017-08-01T07:16:10.510Z,60.64
2017-08-01T07:17:12.389Z,60.54
2017-08-01T07:18:14.208Z,61.12
2017-08-01T07:19:16.025Z,61.80
2017-08-01T07:20:17.922Z,61.61
2017-08-01T07:21:19.799Z,61.32
2017-08-01T07:22:21.680Z,61.02
2017-08-01T07:23:35.876Z,60.44
2017-08-01T07:24:37.755Z,60.61
2017-08-01T07:25:39.659Z,61.38
2017-08-01T07:26:41.534Z,61.87
2017-08-01T07:27:43.375Z,61.94
2017-08-01T07:28:45.192Z,62.19
2017-08-01T07:29:47.093Z,62.29
2017-08-01T07:30:48.970Z,62.85
2017-08-01T07:31:50.845Z,63.04
2017-08-01T07:33:05.045Z,62.98
2017-08-01T07:34:06.959Z,63.26
2017-08-01T07:35:08.849Z,63.17
2017-08-01T07:36:10.752Z,63.07
2017-08-01T07:37:12.591Z,62.78
2017-08-01T07:38:14.404Z,63.01
2017-08-01T07:39:16.286Z,63.01
2017-08-01T07:40:18.166Z,62.52
2017-08-01T07:41:20.067Z,63.10
2017-08-01T07:42:34.238Z,63.01
2017-08-01T07:43:36.110Z,62.71
2017-08-01T07:44:37.991Z,61.74
2017-08-01T07:45:39.906Z,62.52
2017-08-01T07:46:41.749Z,62.23
2017-08-01T07:47:43.585Z,62.32
2017-08-01T07:48:45.482Z,62.32
2017-08-01T07:49:47.368Z,62.13
2017-08-01T07:50:49.271Z,62.52
2017-08-01T07:52:03.443Z,62.32
2017-08-01T07:53:05.319Z,62.13
2017-08-01T07:54:07.194Z,61.74
2017-08-01T07:55:09.095Z,62.16
2017-08-01T07:56:10.907Z,62.26
2017-08-01T07:57:12.725Z,61.87
2017-08-01T07:58:14.605Z,61.68
2017-08-01T07:59:16.501Z,61.97
2017-08-01T08:00:18.396Z,61.32
2017-08-01T08:01:32.566Z,61.19
2017-08-01T08:02:34.464Z,61.74
2017-08-01T08:03:36.340Z,61.74
2017-08-01T08:04:38.223Z,62.23
2017-08-01T08:05:40.063Z,62.91
2017-08-01T08:06:41.900Z,63.46
2017-08-01T08:07:43.801Z,64.04
2017-08-01T08:08:45.702Z,64.33
2017-08-01T08:09:47.600Z,64.50
2017-08-01T08:11:01.751Z,65.17
2017-08-01T08:12:03.626Z,64.69
2017-08-01T08:13:05.500Z,65.17
2017-08-01T08:14:07.373Z,65.85
2017-08-01T08:15:09.198Z,65.85
2017-08-01T08:16:11.035Z,65.56
2017-08-01T08:17:12.910Z,64.69
2017-08-01T08:18:14.841Z,65.27
2017-08-01T08:19:16.713Z,65.85
2017-08-01T08:20:30.862Z,66.34
2017-08-01T08:21:32.742Z,66.37
2017-08-01T08:22:34.618Z,65.75
2017-08-01T08:23:36.528Z,66.44
2017-08-01T08:24:38.354Z,66.34
2017-08-01T08:25:40.198Z,66.44
2017-08-01T08:26:42.077Z,66.53
2017-08-01T08:27:43.956Z,66.63
2017-08-01T08:28:45.857Z,66.17
2017-08-01T08:30:00.012Z,65.79
2017-08-01T08:31:01.914Z,65.69
2017-08-01T08:32:03.814Z,65.89
2017-08-01T08:33:05.710Z,65.69
2017-08-01T08:34:07.526Z,66.17
2017-08-01T08:35:09.345Z,66.17
2017-08-01T08:36:11.239Z,65.69
2017-08-01T08:37:13.143Z,66.08
2017-08-01T08:38:15.047Z,66.17
2017-08-01T08:39:29.214Z,66.27
2017-08-01T08:40:31.094Z,66.72
2017-08-01T08:41:32.966Z,66.86
2017-08-01T08:42:34.842Z,66.27
2017-08-01T08:43:36.690Z,65.20
2017-08-01T08:44:38.521Z,66.21
2017-08-01T08:45:40.429Z,65.43
2017-08-01T08:46:42.331Z,65.33
2017-08-01T08:47:44.231Z,64.46
2017-08-01T08:48:58.386Z,63.42
2017-08-01T08:50:00.285Z,63.13
2017-08-01T08:51:02.191Z,63.71
2017-08-01T08:52:04.085Z,64.56
2017-08-01T08:53:05.904Z,64.75
2017-08-01T08:54:07.743Z,65.33
2017-08-01T08:55:09.600Z,64.65
2017-08-01T08:56:11.420Z,64.85
2017-08-01T08:57:13.262Z,64.85
2017-08-01T08:58:27.433Z,65.72
2017-08-01T08:59:29.306Z,65.47
2017-08-01T09:00:31.182Z,64.78
2017-08-01T09:01:33.065Z,64.72
2017-08-01T09:02:34.880Z,64.62
2017-08-01T09:03:36.718Z,63.55
2017-08-01T09:04:38.593Z,63.26
2017-08-01T09:05:40.469Z,63.45
2017-08-01T09:06:42.349Z,63.84
2017-08-01T09:07:56.497Z,64.14
2017-08-01T09:08:58.353Z,64.14
2017-08-01T09:10:00.272Z,63.39
2017-08-01T09:11:02.172Z,62.71
2017-08-01T09:12:04.012Z,63.29
2017-08-01T09:13:05.832Z,62.23
2017-08-01T09:14:07.730Z,63.26
2017-08-01T09:15:09.612Z,63.45
2017-08-01T09:16:11.515Z,64.33
2017-08-01T09:17:25.689Z,63.62
2017-08-01T09:18:27.565Z,63.81
2017-08-01T09:19:29.442Z,64.62
2017-08-01T09:20:31.320Z,64.14
2017-08-01T09:21:33.194Z,63.65
2017-08-01T09:22:34.995Z,63.75
2017-08-01T09:23:36.912Z,63.84
2017-08-01T09:24:38.841Z,63.55
2017-08-01T09:25:40.735Z,63.29
2017-08-01T09:26:54.907Z,63.39
2017-08-01T09:27:56.780Z,62.61
2017-08-01T09:28:58.655Z,61.93
2017-08-01T09:30:00.529Z,63.00
2017-08-01T09:31:02.375Z,62.81
2017-08-01T09:32:04.220Z,62.23
2017-08-01T09:33:06.127Z,62.23
2017-08-01T09:34:08.040Z,62.03
2017-08-01T09:35:09.941Z,61.96
2017-08-01T09:36:24.150Z,61.51
2017-08-01T09:37:26.083Z,60.63
2017-08-01T09:38:28.046Z,59.30
2017-08-01T09:39:30.190Z,59.30
2017-08-01T09:40:32.059Z,59.59
2017-08-01T09:41:33.878Z,58.91
2017-08-01T09:42:35.771Z,58.61
2017-08-01T09:43:37.699Z,59.39
2017-08-01T09:44:39.619Z,59.42
2017-08-01T09:45:53.821Z,59.13
2017-08-01T09:46:55.719Z,58.64
2017-08-01T09:47:57.633Z,58.54
2017-08-01T09:48:59.526Z,58.28
2017-08-01T09:50:01.363Z,57.24
2017-08-01T09:51:03.224Z,57.53
2017-08-01T09:52:05.165Z,57.04
2017-08-01T09:53:07.142Z,56.85
2017-08-01T09:54:09.149Z,57.14
2017-08-01T09:55:23.316Z,57.34
2017-08-01T09:56:25.255Z,56.36
2017-08-01T09:57:27.253Z,56.56
2017-08-01T09:58:29.188Z,56.85
2017-08-01T09:59:31.210Z,56.65
2017-08-01T10:00:33.065Z,56.65
2017-08-01T10:01:34.997Z,56.36
2017-08-01T10:02:36.908Z,56.00
2017-08-01T10:03:38.720Z,56.29
2017-08-01T10:04:52.962Z,56.00
2017-08-01T10:05:54.873Z,55.80
2017-08-01T10:06:56.772Z,56.07
2017-08-01T10:07:58.656Z,57.24
2017-08-01T10:09:00.497Z,57.89
2017-08-01T10:10:02.318Z,59.42
2017-08-01T10:11:04.229Z,58.94
2017-08-01T10:12:06.153Z,58.64
2017-08-01T10:13:08.087Z,59.03
2017-08-01T10:14:22.282Z,59.16
2017-08-01T10:15:24.193Z,59.26
2017-08-01T10:16:26.095Z,59.55
2017-08-01T10:17:28.007Z,59.45
2017-08-01T10:18:29.872Z,59.35
2017-08-01T10:19:31.776Z,59.55
2017-08-01T10:20:33.749Z,59.06
2017-08-01T10:21:35.679Z,58.80
2017-08-01T10:22:37.620Z,58.22
2017-08-01T10:23:51.834Z,58.12
2017-08-01T10:24:53.708Z,57.43
2017-08-01T10:25:55.608Z,57.26
2017-08-01T10:26:57.510Z,57.95
2017-08-01T10:27:59.335Z,58.44
2017-08-01T10:29:01.172Z,57.85
2017-08-01T10:30:03.074Z,57.92
2017-08-01T10:31:04.977Z,58.60
2017-08-01T10:32:06.858Z,58.99
2017-08-01T10:33:21.078Z,58.89
2017-08-01T10:34:22.954Z,58.58
2017-08-01T10:35:24.837Z,59.35
2017-08-01T10:36:26.719Z,59.26
2017-08-01T10:37:28.562Z,59.55
2017-08-01T10:38:30.407Z,59.35
2017-08-01T10:39:32.280Z,59.16
2017-08-01T10:40:34.181Z,59.94
2017-08-01T10:41:36.062Z,59.97
2017-08-01T10:42:50.238Z,59.48
2017-08-01T10:43:52.136Z,59.38
2017-08-01T10:44:54.020Z,59.38
2017-08-01T10:45:55.900Z,59.48
2017-08-01T10:46:57.740Z,59.74
2017-08-01T10:47:59.575Z,59.74
2017-08-01T10:49:01.462Z,59.94
2017-08-01T10:50:03.365Z,59.35
2017-08-01T10:51:05.249Z,59.84
2017-08-01T10:52:19.427Z,59.84
2017-08-01T10:53:21.304Z,60.72
2017-08-01T10:54:23.206Z,59.55
2017-08-01T10:55:25.114Z,59.58
2017-08-01T10:56:26.961Z,60.13
2017-08-01T10:57:28.795Z,59.97
2017-08-01T10:58:30.676Z,60.46
2017-08-01T10:59:32.579Z,60.46
2017-08-01T11:00:34.456Z,59.97
2017-08-01T11:01:48.608Z,59.70
2017-08-01T11:02:50.481Z,59.22
2017-08-01T11:03:52.362Z,59.22
2017-08-01T11:04:54.266Z,59.12
2017-08-01T11:05:56.115Z,58.73
2017-08-01T11:06:57.967Z,59.12
2017-08-01T11:07:59.841Z,59.02
2017-08-01T11:09:01.748Z,58.73
2017-08-01T11:10:03.621Z,58.63
2017-08-01T11:11:17.771Z,58.76
2017-08-01T11:12:19.649Z,58.76
2017-08-01T11:13:21.552Z,58.47
2017-08-01T11:14:23.457Z,58.27
2017-08-01T11:15:25.303Z,57.78
2017-08-01T11:16:27.118Z,57.78
2017-08-01T11:17:28.933Z,57.52
2017-08-01T11:18:30.752Z,57.91
2017-08-01T11:19:32.592Z,57.91
2017-08-01T11:20:46.770Z,57.71
2017-08-01T11:21:48.664Z,57.81
2017-08-01T11:22:50.570Z,57.35
2017-08-01T11:23:52.448Z,56.47
2017-08-01T11:24:54.269Z,55.69
2017-08-01T11:25:56.109Z,55.79
2017-08-01T11:26:58.044Z,55.59
2017-08-01T11:27:59.922Z,55.59
2017-08-01T11:29:01.803Z,55.91
2017-08-01T11:30:15.988Z,55.42
2017-08-01T11:31:17.901Z,54.83
2017-08-01T11:32:19.797Z,54.64
2017-08-01T11:33:21.699Z,54.54
2017-08-01T11:34:23.524Z,54.38
2017-08-01T11:35:25.377Z,53.39
2017-08-01T11:36:27.275Z,52.81
2017-08-01T11:37:29.166Z,52.25
2017-08-01T11:38:31.050Z,52.25
2017-08-01T11:39:45.232Z,51.66
2017-08-01T11:40:47.157Z,51.56
2017-08-01T11:41:49.032Z,51.56
2017-08-01T11:42:50.930Z,51.37
2017-08-01T11:43:52.756Z,51.46
2017-08-01T11:44:54.597Z,51.27
2017-08-01T11:45:56.501Z,51.07
2017-08-01T11:46:58.363Z,51.07
2017-08-01T11:48:00.257Z,50.71
2017-08-01T11:49:14.405Z,50.61
2017-08-01T11:50:16.285Z,50.61
2017-08-01T11:51:18.589Z,50.71
2017-08-01T11:52:20.552Z,50.61
2017-08-01T11:53:22.395Z,50.12
2017-08-01T11:54:24.231Z,49.73
2017-08-01T11:55:26.115Z,49.92
2017-08-01T11:56:28.024Z,50.12
2017-08-01T11:57:29.919Z,49.92
2017-08-01T11:58:44.082Z,49.63
2017-08-01T11:59:45.979Z,49.16
2017-08-01T12:00:47.860Z,49.26
2017-08-01T12:01:49.739Z,49.46
2017-08-01T12:02:51.581Z,48.36
2017-08-01T12:03:53.422Z,48.38
2017-08-01T12:04:55.323Z,48.48
2017-08-01T12:05:57.230Z,48.28
2017-08-01T12:06:59.141Z,48.77
2017-08-01T12:08:13.407Z,48.58
2017-08-01T12:09:15.289Z,48.38
2017-08-01T12:10:17.167Z,48.38
2017-08-01T12:11:19.071Z,48.68
2017-08-01T12:12:20.923Z,48.70
2017-08-01T12:13:22.763Z,47.99
2017-08-01T12:14:24.640Z,47.52
2017-08-01T12:15:26.546Z,47.62
2017-08-01T12:16:28.445Z,47.03
2017-08-01T12:17:42.604Z,46.84
2017-08-01T12:18:44.505Z,46.54
2017-08-01T12:19:46.385Z,46.74
2017-08-01T12:20:48.264Z,47.23
2017-08-01T12:21:50.122Z,47.52
2017-08-01T12:22:51.968Z,47.42
2017-08-01T12:23:53.874Z,47.91
2017-08-01T12:24:55.756Z,47.62
2017-08-01T12:25:57.649Z,47.33
2017-08-01T12:27:11.855Z,46.56
2017-08-01T12:28:13.742Z,46.95
2017-08-01T12:29:15.616Z,46.47
2017-08-01T12:30:17.502Z,46.76
2017-08-01T12:31:19.481Z,47.06
2017-08-01T12:32:21.268Z,46.37
2017-08-01T12:33:23.174Z,46.27
2017-08-01T12:34:25.081Z,46.30
2017-08-01T12:35:26.981Z,46.00
2017-08-01T12:36:41.158Z,46.00
2017-08-01T12:37:43.033Z,46.10
2017-08-01T12:38:44.916Z,46.10
2017-08-01T12:39:46.824Z,45.70
2017-08-01T12:40:48.712Z,45.70
2017-08-01T12:41:50.605Z,45.90
2017-08-01T12:42:52.504Z,45.90
2017-08-01T12:43:54.390Z,45.90
2017-08-01T12:44:56.290Z,45.70
2017-08-01T12:46:10.457Z,45.80
2017-08-01T12:47:12.334Z,46.00
2017-08-01T12:48:14.219Z,46.00
2017-08-01T12:49:16.184Z,45.80
2017-08-01T12:50:17.993Z,45.92
2017-08-01T12:51:19.819Z,45.83
2017-08-01T12:52:21.737Z,45.83
2017-08-01T12:53:23.650Z,45.41
2017-08-01T12:54:25.528Z,45.34
2017-08-01T12:55:39.715Z,44.16
2017-08-01T12:56:41.623Z,44.16
2017-08-01T12:57:43.527Z,44.53
2017-08-01T12:58:45.647Z,44.74
2017-08-01T12:59:47.505Z,45.04
2017-08-01T13:00:49.356Z,44.84
2017-08-01T13:01:51.200Z,44.84
2017-08-01T13:02:53.469Z,44.74
2017-08-01T13:03:55.273Z,44.94
2017-08-01T13:05:09.594Z,44.74
2017-08-01T13:06:11.521Z,44.94
2017-08-01T13:07:13.509Z,45.04
2017-08-01T13:08:15.466Z,44.65
2017-08-01T13:09:17.347Z,44.74
2017-08-01T13:10:19.198Z,44.45
2017-08-01T13:11:21.118Z,44.06
2017-08-01T13:12:23.070Z,42.98
2017-08-01T13:13:24.994Z,42.90
2017-08-01T13:14:39.220Z,43.18
2017-08-01T13:15:41.138Z,43.00
2017-08-01T13:16:43.105Z,43.29
2017-08-01T13:17:45.043Z,43.08
2017-08-01T13:18:46.923Z,42.90
2017-08-01T13:19:48.806Z,43.19
2017-08-01T13:20:50.686Z,43.10
2017-08-01T13:21:52.705Z,43.10
2017-08-01T13:22:54.653Z,42.61
2017-08-01T13:24:08.903Z,43.10
2017-08-01T13:25:10.805Z,42.80
2017-08-01T13:26:12.710Z,42.02
2017-08-01T13:27:14.733Z,42.02
2017-08-01T13:28:16.651Z,40.64
2017-08-01T13:29:18.483Z,39.58
2017-08-01T13:30:20.400Z,39.48
2017-08-01T13:31:22.477Z,39.09
2017-08-01T13:32:24.347Z,38.60
2017-08-01T13:33:38.523Z,38.01
2017-08-01T13:34:40.405Z,37.52